Time;durP1;ratioP1;P1;durP2;ratioP2;P2;SDS_P1;SDS_P2;PMS_P1;PMS_P2;Temp;Humidity;BMP_temperature;BMP_pressure;BME280_temperature;BME280_humidity;BME280_pressure;Samples;Min_cycle;Max_cycle;Signal;HPM_P1;HPM_P2
2023/03/11 03:02:33;;;;;;;7.70;7.20;;;2.20;99.90;;;;;;5067662;23;20237;-79
2023/03/11 03:05:01;;;;;;;7.80;7.30;;;2.10;99.90;;;;;;4973649;28;20202;-78
2023/03/11 03:07:28;;;;;;;7.80;7.40;;;2.10;99.90;;;;;;4972240;28;20450;-78
2023/03/11 03:09:55;;;;;;;7.47;6.97;;;2.10;99.90;;;;;;4977819;28;20194;-78
2023/03/11 03:12:22;;;;;;;7.50;7.10;;;2.10;99.90;;;;;;4959767;29;20478;-78
2023/03/11 03:14:49;;;;;;;7.60;7.17;;;2.00;99.90;;;;;;4952435;29;20217;-78
2023/03/11 03:17:16;;;;;;;7.40;7.00;;;1.90;99.90;;;;;;4956490;29;20289;-78
2023/03/11 03:19:45;;;;;;;7.80;7.30;;;1.90;99.90;;;;;;4955349;29;20453;-78
2023/03/11 03:22:13;;;;;;;7.80;7.20;;;1.90;99.90;;;;;;4955000;28;20226;-79
2023/03/11 03:24:41;;;;;;;7.93;7.43;;;1.80;99.90;;;;;;4943919;29;20636;-79
2023/03/11 03:27:08;;;;;;;7.80;7.30;;;1.80;99.90;;;;;;4953613;28;20286;-75
2023/03/11 03:29:35;;;;;;;7.60;7.20;;;1.70;99.90;;;;;;4947706;29;20545;-77
2023/03/11 03:32:01;;;;;;;7.63;7.13;;;1.70;99.90;;;;;;4948967;28;20494;-76
2023/03/11 03:34:28;;;;;;;7.30;6.90;;;1.60;99.90;;;;;;4943062;29;21025;-76
2023/03/11 03:36:56;;;;;;;7.80;7.30;;;1.60;99.90;;;;;;4941808;29;20483;-77
2023/03/11 03:39:23;;;;;;;8.60;7.80;;;1.60;99.90;;;;;;4949190;29;20454;-82
2023/03/11 03:41:52;;;;;;;7.93;7.43;;;1.50;99.90;;;;;;4948412;29;20470;-76
2023/03/11 03:44:22;;;;;;;8.27;7.70;;;1.50;99.90;;;;;;4946532;29;20457;-76
2023/03/11 03:46:49;;;;;;;8.47;7.97;;;1.50;99.90;;;;;;4939146;29;20877;-84
2023/03/11 03:49:17;;;;;;;8.03;7.50;;;1.40;99.90;;;;;;4935644;29;20510;-82
2023/03/11 03:51:45;;;;;;;7.80;7.40;;;1.50;99.90;;;;;;4933796;29;20483;-85
2023/03/11 03:54:21;;;;;;;7.73;7.23;;;1.40;99.90;;;;;;4947680;28;20839;-77
2023/03/11 03:56:48;;;;;;;7.47;6.97;;;1.30;99.90;;;;;;4937887;29;20467;-76
2023/03/11 03:59:15;;;;;;;7.70;7.30;;;1.30;99.90;;;;;;4947710;29;20463;-80
2023/03/11 04:01:48;;;;;;;7.50;7.10;;;1.30;99.90;;;;;;4949176;28;20558;-77
2023/03/11 04:04:16;;;;;;;8.00;7.50;;;1.20;99.90;;;;;;4951894;29;20831;-77
2023/03/11 04:06:43;;;;;;;8.10;7.43;;;1.20;99.90;;;;;;4952950;29;20553;-77
2023/03/11 04:09:11;;;;;;;7.93;7.30;;;1.10;99.90;;;;;;4941372;29;20457;-77
2023/03/11 04:11:39;;;;;;;7.60;7.20;;;1.10;99.90;;;;;;4946858;28;20230;-76
2023/03/11 04:14:07;;;;;;;7.40;7.00;;;1.00;99.90;;;;;;4951146;28;20482;-77
2023/03/11 04:16:40;;;;;;;7.90;7.40;;;1.00;99.90;;;;;;4953662;29;20501;-77
2023/03/11 04:19:12;;;;;;;7.53;7.13;;;1.00;99.90;;;;;;4956115;29;20986;-77
2023/03/11 04:21:39;;;;;;;7.40;7.00;;;0.90;99.90;;;;;;4955279;28;21006;-77
2023/03/11 04:24:06;;;;;;;7.80;7.30;;;0.90;99.90;;;;;;4952263;29;20845;-77
2023/03/11 04:26:36;;;;;;;7.80;7.20;;;0.90;99.90;;;;;;4952413;28;20837;-76
2023/03/11 04:29:06;;;;;;;7.90;7.40;;;0.90;99.90;;;;;;4950429;29;20511;-77
2023/03/11 04:31:38;;;;;;;7.43;6.93;;;0.80;99.90;;;;;;4945474;29;20479;-81
2023/03/11 04:34:06;;;;;;;7.67;7.07;;;0.90;99.90;;;;;;4933558;29;20464;-81
2023/03/11 04:36:35;;;;;;;7.67;7.07;;;0.80;99.90;;;;;;4942959;29;21036;-80
2023/03/11 04:39:03;;;;;;;7.50;7.03;;;0.80;99.90;;;;;;4953829;29;20457;-83
2023/03/11 04:41:33;;;;;;;7.97;7.20;;;0.70;99.90;;;;;;4954939;28;20842;-77
2023/03/11 04:44:01;;;;;;;7.97;7.47;;;0.60;99.90;;;;;;4935192;29;20455;-77
2023/03/11 04:46:29;;;;;;;7.83;7.17;;;0.60;99.90;;;;;;4939299;29;20450;-77
2023/03/11 04:48:59;;;;;;;7.50;7.00;;;0.60;99.90;;;;;;4947770;29;20474;-76
2023/03/11 04:51:26;;;;;;;7.87;7.07;;;0.50;99.90;;;;;;4945152;29;20555;-76
2023/03/11 04:53:53;;;;;;;7.43;6.93;;;0.50;99.90;;;;;;4950237;29;20485;-77
2023/03/11 04:56:20;;;;;;;7.43;6.80;;;0.40;99.90;;;;;;4952462;29;20491;-77
2023/03/11 04:58:48;;;;;;;7.77;7.10;;;0.40;99.90;;;;;;4949796;29;20475;-77
2023/03/11 05:01:15;;;;;;;8.13;7.50;;;0.50;99.90;;;;;;4953544;28;20515;-76
2023/03/11 05:03:43;;;;;;;7.80;7.30;;;0.50;99.90;;;;;;4953093;29;20471;-77
2023/03/11 05:06:11;;;;;;;8.03;7.53;;;0.50;99.90;;;;;;4951948;29;20513;-76
2023/03/11 05:08:39;;;;;;;7.73;7.20;;;0.50;99.90;;;;;;4952245;28;20853;-77
2023/03/11 05:11:07;;;;;;;7.50;7.00;;;0.50;99.90;;;;;;4954730;28;20471;-76
2023/03/11 05:13:34;;;;;;;7.57;7.10;;;0.50;99.90;;;;;;4953188;29;20453;-76
2023/03/11 05:16:02;;;;;;;7.77;7.10;;;0.50;99.90;;;;;;4948813;29;20472;-77
2023/03/11 05:18:30;;;;;;;7.70;7.20;;;0.50;99.90;;;;;;4949042;29;20453;-76
2023/03/11 05:20:59;;;;;;;7.73;7.13;;;0.40;99.90;;;;;;4952354;28;20560;-77
2023/03/11 05:23:29;;;;;;;7.90;7.30;;;0.40;99.90;;;;;;4949481;29;20458;-77
2023/03/11 05:25:56;;;;;;;7.60;7.10;;;0.40;99.90;;;;;;4932327;29;20991;-77
2023/03/11 05:28:23;;;;;;;8.13;7.30;;;0.40;99.90;;;;;;4938188;29;20874;-76
2023/03/11 05:30:52;;;;;;;8.50;7.90;;;0.40;99.90;;;;;;4936420;29;20882;-76
2023/03/11 05:33:20;;;;;;;8.27;7.67;;;0.40;99.90;;;;;;4942211;29;20448;-76
2023/03/11 05:35:47;;;;;;;7.70;7.23;;;0.40;99.90;;;;;;4951758;29;20465;-77
2023/03/11 05:38:15;;;;;;;7.97;7.23;;;0.40;99.90;;;;;;4953483;29;20469;-76
2023/03/11 05:40:42;;;;;;;8.23;7.73;;;0.40;99.90;;;;;;4953444;28;21018;-77
2023/03/11 05:43:09;;;;;;;8.27;7.73;;;0.40;99.90;;;;;;4939117;29;20997;-81
2023/03/11 05:45:40;;;;;;;8.60;7.80;;;0.40;99.90;;;;;;4935304;29;20507;-81
2023/03/11 05:48:07;;;;;;;7.80;7.40;;;0.40;99.90;;;;;;4940654;29;20454;-81
2023/03/11 05:50:36;;;;;;;8.70;7.83;;;0.40;99.90;;;;;;4948347;29;20453;-80
2023/03/11 05:53:03;;;;;;;7.80;7.23;;;0.40;99.90;;;;;;4947294;29;20452;-80
2023/03/11 05:55:33;;;;;;;8.60;7.80;;;0.40;99.90;;;;;;4947244;29;20464;-80
2023/03/11 05:58:00;;;;;;;8.47;7.80;;;0.40;99.90;;;;;;4949505;28;20536;-80
2023/03/11 06:00:28;;;;;;;8.53;7.73;;;0.50;99.90;;;;;;4934142;29;20546;-80
2023/03/11 06:02:57;;;;;;;8.13;7.57;;;0.40;99.90;;;;;;4936274;29;20463;-80
2023/03/11 06:05:24;;;;;;;8.20;7.70;;;0.50;99.90;;;;;;4936439;29;20457;-80
2023/03/11 06:07:52;;;;;;;7.93;7.43;;;0.50;99.90;;;;;;4937318;29;20513;-80
2023/03/11 06:10:21;;;;;;;7.90;7.40;;;0.50;99.90;;;;;;4942285;28;20491;-81
2023/03/11 06:12:49;;;;;;;7.83;7.23;;;0.50;99.90;;;;;;4950711;29;20526;-85
2023/03/11 06:15:22;;;;;;;8.47;7.87;;;0.50;99.90;;;;;;4952652;29;20520;-84
2023/03/11 06:17:49;;;;;;;8.63;7.93;;;0.60;99.90;;;;;;4945814;29;20474;-76
2023/03/11 06:20:18;;;;;;;8.20;7.50;;;0.60;99.90;;;;;;4935241;29;20455;-76
2023/03/11 06:22:48;;;;;;;8.50;7.90;;;0.70;99.90;;;;;;4934605;29;21027;-76
2023/03/11 06:25:15;;;;;;;8.30;7.67;;;0.70;99.90;;;;;;4934740;29;20545;-76
2023/03/11 06:27:44;;;;;;;7.90;7.40;;;0.80;99.90;;;;;;4934486;29;20508;-76
2023/03/11 06:30:14;;;;;;;7.90;7.40;;;0.90;99.90;;;;;;4934926;29;20960;-77
2023/03/11 06:32:49;;;;;;;8.47;7.90;;;0.90;99.90;;;;;;4936476;29;20515;-85
2023/03/11 06:35:16;;;;;;;8.70;8.00;;;1.00;99.90;;;;;;4935838;29;20459;-81
2023/03/11 06:37:43;;;;;;;8.50;7.90;;;1.00;99.90;;;;;;4934403;29;20477;-81
2023/03/11 06:40:11;;;;;;;8.50;7.90;;;1.00;99.90;;;;;;4935841;29;20465;-81
2023/03/11 06:42:38;;;;;;;8.37;7.57;;;1.00;99.90;;;;;;4936899;29;21114;-81
2023/03/11 06:45:08;;;;;;;8.50;7.80;;;1.10;99.90;;;;;;4933690;29;20464;-81
2023/03/11 06:47:36;;;;;;;8.93;8.20;;;1.20;99.90;;;;;;4935555;29;20449;-82
2023/03/11 06:50:07;;;;;;;8.53;7.90;;;1.60;99.90;;;;;;4935456;29;20470;-82
2023/03/11 06:52:34;;;;;;;8.67;8.00;;;1.80;99.90;;;;;;4935596;29;20819;-82
2023/03/11 06:55:02;;;;;;;8.60;8.10;;;2.20;99.90;;;;;;4935120;29;20973;-82
2023/03/11 06:57:30;;;;;;;8.70;8.20;;;2.30;99.90;;;;;;4935031;29;20479;-82
2023/03/11 07:00:00;;;;;;;9.00;8.40;;;2.60;99.90;;;;;;4935935;29;20210;-83
2023/03/11 07:02:27;;;;;;;8.73;8.07;;;2.80;99.90;;;;;;4938454;29;20564;-81
2023/03/11 07:04:55;;;;;;;8.30;7.80;;;3.30;99.90;;;;;;4935846;29;20297;-83
2023/03/11 07:07:22;;;;;;;8.40;7.80;;;3.70;99.90;;;;;;4928898;29;20195;-83
2023/03/11 07:09:49;;;;;;;8.37;7.87;;;4.00;99.90;;;;;;4935677;29;20210;-77
2023/03/11 07:12:16;;;;;;;8.80;8.10;;;4.30;99.90;;;;;;4935154;29;20278;-79
2023/03/11 07:14:43;;;;;;;8.83;8.13;;;4.40;99.90;;;;;;4931830;29;20207;-78
2023/03/11 07:17:11;;;;;;;9.07;8.47;;;4.60;99.90;;;;;;4933542;29;20267;-75
2023/03/11 07:19:44;;;;;;;8.90;8.30;;;5.00;99.90;;;;;;4932344;29;20202;-75
2023/03/11 07:22:13;;;;;;;9.03;8.10;;;5.30;99.90;;;;;;4935007;29;20215;-75
2023/03/11 07:24:40;;;;;;;9.47;8.70;;;5.60;99.90;;;;;;4934577;29;20200;-76
2023/03/11 07:27:07;;;;;;;8.70;8.10;;;6.00;99.90;;;;;;4935222;29;20274;-75
2023/03/11 07:29:34;;;;;;;8.87;8.17;;;6.20;99.90;;;;;;4934371;29;20208;-76
2023/03/11 07:32:01;;;;;;;8.90;8.20;;;6.10;99.90;;;;;;4934481;29;20287;-75
2023/03/11 07:34:27;;;;;;;9.23;8.40;;;6.20;99.90;;;;;;4934421;29;20193;-76
2023/03/11 07:36:54;;;;;;;9.13;8.47;;;6.10;99.90;;;;;;4934036;29;20196;-76
2023/03/11 07:39:22;;;;;;;8.20;7.70;;;6.20;99.90;;;;;;4934307;29;20205;-76
2023/03/11 07:41:49;;;;;;;9.00;8.50;;;6.40;99.90;;;;;;4934229;29;20249;-75
2023/03/11 07:44:17;;;;;;;8.57;7.97;;;6.50;99.90;;;;;;4931491;29;20206;-78
2023/03/11 07:46:45;;;;;;;9.53;8.63;;;6.80;99.90;;;;;;4934207;29;20190;-78
2023/03/11 07:49:12;;;;;;;8.80;8.00;;;7.00;99.90;;;;;;4929253;29;20632;-78
2023/03/11 07:51:41;;;;;;;8.83;8.03;;;6.80;99.90;;;;;;4935485;29;20639;-79
2023/03/11 07:54:08;;;;;;;8.33;7.67;;;6.50;99.90;;;;;;4937081;29;20202;-78
2023/03/11 07:56:37;;;;;;;8.40;7.70;;;6.10;99.90;;;;;;4935933;29;20249;-77
2023/03/11 07:59:05;;;;;;;8.43;7.80;;;5.60;99.90;;;;;;4935648;29;20692;-77
2023/03/11 08:01:35;;;;;;;8.00;7.30;;;5.40;99.90;;;;;;4936987;29;20263;-77
2023/03/11 08:04:03;;;;;;;8.40;7.70;;;5.20;99.90;;;;;;4935463;29;20734;-78
2023/03/11 08:06:32;;;;;;;8.40;7.80;;;4.80;99.90;;;;;;4933847;29;20232;-79
2023/03/11 08:09:00;;;;;;;8.87;8.07;;;4.60;99.90;;;;;;4929304;29;20197;-81
2023/03/11 08:11:27;;;;;;;8.50;7.97;;;4.60;99.90;;;;;;4932891;29;20243;-78
2023/03/11 08:13:56;;;;;;;8.20;7.70;;;4.60;99.90;;;;;;4937020;29;20200;-76
2023/03/11 08:16:24;;;;;;;8.17;7.60;;;4.70;99.90;;;;;;4935619;29;20224;-78
2023/03/11 08:18:52;;;;;;;7.80;7.30;;;4.70;99.90;;;;;;4934281;29;20284;-77
2023/03/11 08:21:21;;;;;;;8.17;7.37;;;4.80;99.90;;;;;;4933080;29;20239;-78
2023/03/11 08:23:48;;;;;;;8.10;7.60;;;4.80;99.90;;;;;;4928763;29;20667;-79
2023/03/11 08:26:17;;;;;;;8.37;7.63;;;4.80;99.90;;;;;;4931936;29;20199;-78
2023/03/11 08:28:44;;;;;;;7.97;7.37;;;4.60;99.90;;;;;;4932990;29;20253;-79
2023/03/11 08:31:17;;;;;;;8.23;7.67;;;4.50;99.90;;;;;;4937119;29;20361;-78
2023/03/11 08:33:45;;;;;;;8.23;7.63;;;5.20;99.90;;;;;;4935516;29;20214;-78
2023/03/11 08:36:12;;;;;;;8.80;8.10;;;6.00;99.90;;;;;;4931809;29;20245;-77
2023/03/11 08:38:39;;;;;;;8.80;8.10;;;6.70;99.90;;;;;;4935751;29;20228;-78
2023/03/11 08:41:06;;;;;;;8.67;8.07;;;7.40;99.90;;;;;;4933238;29;20230;-79
2023/03/11 08:43:32;;;;;;;8.83;8.07;;;7.80;99.90;;;;;;4936745;29;20223;-76
2023/03/11 08:46:00;;;;;;;8.80;8.00;;;8.20;99.90;;;;;;4936365;29;20238;-79
2023/03/11 08:48:28;;;;;;;9.03;8.23;;;8.50;99.90;;;;;;4937307;29;20210;-80
2023/03/11 08:50:55;;;;;;;8.27;7.67;;;8.90;99.90;;;;;;4935882;29;20744;-83
2023/03/11 08:53:23;;;;;;;8.60;7.90;;;9.10;99.90;;;;;;4935634;29;20200;-85
2023/03/11 08:55:50;;;;;;;8.23;7.63;;;9.20;99.90;;;;;;4933472;29;20212;-85
2023/03/11 08:58:17;;;;;;;8.00;7.40;;;9.30;99.90;;;;;;4925328;29;20219;-83
2023/03/11 09:00:44;;;;;;;8.20;7.37;;;9.40;99.90;;;;;;4943522;28;20243;-85
2023/03/11 09:03:11;;;;;;;8.00;7.50;;;9.60;99.90;;;;;;4939141;29;20294;-81
2023/03/11 09:05:39;;;;;;;7.60;7.00;;;9.50;99.90;;;;;;4938747;29;20204;-78
2023/03/11 09:08:06;;;;;;;8.70;8.20;;;9.00;99.90;;;;;;4938938;29;20251;-78
2023/03/11 09:10:32;;;;;;;7.60;7.10;;;8.50;99.90;;;;;;4943782;29;20199;-77
2023/03/11 09:12:59;;;;;;;7.60;7.10;;;7.90;99.90;;;;;;4952633;29;20207;-77
2023/03/11 09:15:26;;;;;;;7.93;7.37;;;7.60;99.90;;;;;;4946600;29;20211;-77
2023/03/11 09:17:54;;;;;;;7.70;7.20;;;8.10;99.90;;;;;;4943634;29;20768;-78
2023/03/11 09:20:21;;;;;;;8.70;7.87;;;8.70;99.90;;;;;;4938755;29;20211;-78
2023/03/11 09:22:49;;;;;;;7.17;6.67;;;8.20;99.90;;;;;;4937324;29;20381;-81
2023/03/11 09:25:16;;;;;;;7.37;6.90;;;7.90;99.90;;;;;;4938034;29;20193;-86
2023/03/11 09:27:43;;;;;;;5.38;3.42;;;7.80;99.90;;;;;;4935420;29;20448;-86
2023/03/11 09:30:11;;;;;;;4.93;4.50;;;7.60;99.90;;;;;;4938174;29;20213;-85
2023/03/11 09:32:38;;;;;;;7.40;6.90;;;7.20;99.90;;;;;;4937643;29;20461;-85
2023/03/11 09:35:06;;;;;;;2.33;2.10;;;7.10;99.90;;;;;;4947041;29;20208;-86
2023/03/11 09:37:32;;;;;;;8.00;7.20;;;6.80;99.90;;;;;;4952873;29;20203;-86
2023/03/11 09:40:00;;;;;;;8.33;7.73;;;6.50;99.90;;;;;;4951770;29;20694;-86
2023/03/11 09:42:35;;;;;;;10.30;9.30;;;6.30;99.90;;;;;;4952075;28;20223;-85
2023/03/11 09:45:06;;;;;;;9.63;8.80;;;6.00;99.90;;;;;;4938452;29;20230;-86
2023/03/11 09:47:46;;;;;;;9.17;8.30;;;5.90;99.90;;;;;;4949727;29;20202;-85
2023/03/11 09:50:26;;;;;;;8.80;8.10;;;6.00;99.90;;;;;;4956126;29;20211;-86
2023/03/11 09:53:07;;;;;;;8.73;8.03;;;6.10;99.90;;;;;;4946430;29;20207;-85
2023/03/11 09:55:38;;;;;;;8.40;7.70;;;6.30;99.90;;;;;;4945310;29;20198;-85
2023/03/11 09:58:15;;;;;;;8.10;7.50;;;6.50;99.90;;;;;;4954584;29;20218;-85
2023/03/11 10:00:43;;;;;;;8.10;7.40;;;6.70;99.90;;;;;;4948394;29;20250;-83
2023/03/11 10:03:22;;;;;;;8.27;7.57;;;6.60;99.90;;;;;;4947341;29;20277;-85
2023/03/11 10:05:52;;;;;;;7.67;7.20;;;6.70;99.90;;;;;;4942897;29;20246;-85
2023/03/11 10:08:24;;;;;;;7.93;7.30;;;6.60;99.90;;;;;;4948374;29;20214;-85
2023/03/11 10:11:01;;;;;;;8.03;7.53;;;6.80;99.90;;;;;;4955552;28;20227;-84
2023/03/11 10:13:34;;;;;;;8.00;7.50;;;7.00;99.90;;;;;;4943469;29;20206;-84
2023/03/11 10:16:09;;;;;;;8.00;7.50;;;7.00;99.90;;;;;;4954661;29;20269;-84
2023/03/11 10:18:51;;;;;;;7.70;7.30;;;7.10;99.90;;;;;;4952773;28;20621;-84
2023/03/11 10:21:31;;;;;;;8.27;7.67;;;6.90;99.90;;;;;;4947780;28;20222;-84
2023/03/11 10:24:11;;;;;;;7.80;7.30;;;7.40;99.90;;;;;;4945369;29;20220;-84
2023/03/11 10:26:45;;;;;;;7.77;7.17;;;7.90;99.90;;;;;;4944595;29;20235;-84
2023/03/11 10:29:17;;;;;;;8.00;7.40;;;7.70;99.90;;;;;;4946307;29;20194;-83
2023/03/11 10:31:48;;;;;;;8.20;7.70;;;7.50;99.90;;;;;;4947834;29;20257;-86
2023/03/11 10:34:21;;;;;;;8.10;7.60;;;7.50;99.90;;;;;;4951177;29;20213;-85
2023/03/11 10:36:56;;;;;;;8.60;7.80;;;7.40;99.90;;;;;;4942454;29;20226;-85
2023/03/11 10:39:23;;;;;;;8.47;7.67;;;7.40;99.90;;;;;;4934875;29;20222;-84
2023/03/11 10:41:55;;;;;;;8.07;7.57;;;7.30;99.90;;;;;;4953135;28;20253;-84
2023/03/11 10:44:27;;;;;;;7.20;6.70;;;7.40;99.90;;;;;;4946881;29;20206;-84
2023/03/11 10:46:53;;;;;;;7.87;7.27;;;7.60;99.90;;;;;;4949380;28;20203;-84
2023/03/11 10:49:20;;;;;;;7.60;7.10;;;7.70;99.90;;;;;;4943362;29;20210;-79
2023/03/11 10:51:49;;;;;;;7.17;6.77;;;7.70;99.90;;;;;;4946862;28;20784;-83
2023/03/11 10:54:26;;;;;;;8.23;7.53;;;7.80;99.90;;;;;;4953207;29;20704;-83
2023/03/11 10:56:59;;;;;;;8.30;7.70;;;7.80;99.90;;;;;;4935730;29;20662;-84
2023/03/11 10:59:30;;;;;;;7.43;7.03;;;7.50;99.90;;;;;;4933100;29;20202;-83
2023/03/11 11:01:59;;;;;;;8.10;7.40;;;7.40;99.90;;;;;;4948019;28;20241;-83
2023/03/11 11:04:30;;;;;;;8.33;7.83;;;7.30;99.90;;;;;;4947140;29;20202;-84
2023/03/11 11:06:58;;;;;;;7.60;7.10;;;7.00;99.90;;;;;;4953295;29;20195;-82
2023/03/11 11:09:29;;;;;;;7.17;6.77;;;6.90;99.90;;;;;;4929761;29;20199;-83
2023/03/11 11:12:04;;;;;;;7.60;7.00;;;6.70;99.90;;;;;;4932693;29;20222;-81
2023/03/11 11:14:46;;;;;;;7.43;6.93;;;6.60;99.90;;;;;;4933721;29;20207;-81
2023/03/11 11:17:22;;;;;;;8.27;7.70;;;6.50;99.90;;;;;;4937174;29;20202;-83
2023/03/11 11:19:50;;;;;;;8.30;7.73;;;6.50;99.90;;;;;;4936501;29;20222;-83
2023/03/11 11:22:20;;;;;;;8.10;7.60;;;6.50;99.90;;;;;;4935653;29;20251;-84
2023/03/11 11:24:50;;;;;;;8.50;7.87;;;6.50;99.90;;;;;;4937379;29;20191;-84
2023/03/11 11:27:20;;;;;;;8.47;7.90;;;6.40;99.90;;;;;;4937032;29;20199;-83
2023/03/11 11:29:49;;;;;;;8.10;7.60;;;6.20;99.90;;;;;;4935415;29;20206;-83
2023/03/11 11:32:19;;;;;;;8.20;7.60;;;6.40;99.90;;;;;;4935836;29;20225;-84
2023/03/11 11:34:55;;;;;;;8.27;7.67;;;6.50;99.90;;;;;;4937919;29;20202;-84
2023/03/11 11:37:23;;;;;;;8.20;7.70;;;6.60;99.90;;;;;;4934855;29;20207;-85
2023/03/11 11:39:55;;;;;;;8.23;7.63;;;6.80;99.90;;;;;;4936819;29;20215;-84
2023/03/11 11:42:26;;;;;;;8.37;7.87;;;6.80;99.90;;;;;;4937840;29;20222;-85
2023/03/11 11:44:57;;;;;;;8.30;7.70;;;6.50;99.90;;;;;;4931469;29;20222;-84
2023/03/11 11:47:30;;;;;;;8.20;7.60;;;6.50;99.90;;;;;;4937202;28;20223;-84
2023/03/11 11:50:00;;;;;;;8.30;7.47;;;6.60;99.90;;;;;;4934771;29;20209;-83
2023/03/11 11:52:32;;;;;;;8.50;7.90;;;6.80;99.90;;;;;;4935101;29;20723;-83
2023/03/11 11:55:03;;;;;;;7.90;7.50;;;6.80;99.90;;;;;;4935931;29;20203;-85
2023/03/11 11:57:32;;;;;;;8.17;7.67;;;6.70;99.90;;;;;;4955735;29;20187;-85
2023/03/11 11:59:59;;;;;;;8.20;7.67;;;6.80;99.90;;;;;;4935050;29;20246;-85
2023/03/11 12:02:46;;;;;;;7.20;6.80;;;7.10;99.90;;;;;;4933268;29;20697;-84
2023/03/11 12:05:21;;;;;;;7.57;7.07;;;7.60;99.90;;;;;;4928658;29;20212;-84
2023/03/11 12:08:03;;;;;;;7.72;7.13;;;7.60;99.90;;;;;;4920086;29;20977;-87
2023/03/11 12:10:34;;;;;;;7.00;6.60;;;7.40;99.90;;;;;;4939167;29;20198;-85
2023/03/11 12:13:29;;;;;;;6.90;6.40;;;7.50;99.90;;;;;;4931097;29;20207;-85
2023/03/11 12:16:02;;;;;;;7.03;6.50;;;7.70;99.90;;;;;;4936858;29;20294;-85
2023/03/11 12:18:36;;;;;;;7.27;6.80;;;7.70;99.90;;;;;;4927310;29;20223;-86
2023/03/11 12:21:12;;;;;;;7.30;6.80;;;7.90;99.90;;;;;;4941081;28;20226;-85
2023/03/11 12:23:50;;;;;;;7.50;7.00;;;8.10;99.90;;;;;;4935625;29;20731;-85
2023/03/11 12:26:20;;;;;;;7.40;6.90;;;8.10;99.90;;;;;;4934352;29;20222;-86
2023/03/11 12:28:55;;;;;;;7.67;7.00;;;8.20;99.90;;;;;;4934633;29;20634;-86
2023/03/11 12:31:23;;;;;;;7.53;6.87;;;8.10;99.90;;;;;;4934166;29;20254;-85
2023/03/11 12:33:57;;;;;;;7.90;7.30;;;8.10;99.90;;;;;;4935027;29;20210;-86
2023/03/11 12:36:32;;;;;;;7.30;6.70;;;8.00;99.90;;;;;;4929000;29;20202;-82
2023/03/11 12:39:14;;;;;;;7.27;6.87;;;7.90;99.90;;;;;;4939402;29;20236;-83
2023/03/11 12:41:43;;;;;;;7.10;6.70;;;7.80;99.90;;;;;;4940044;29;20752;-84
2023/03/11 12:44:27;;;;;;;7.17;6.57;;;7.60;99.90;;;;;;4938874;29;20235;-84
2023/03/11 12:47:23;;;;;;;7.40;6.70;;;7.20;99.90;;;;;;4938370;29;20199;-84
2023/03/11 12:49:53;;;;;;;7.55;7.07;;;7.10;99.90;;;;;;4933497;29;20433;-83
2023/03/11 12:52:26;;;;;;;7.30;6.90;;;6.90;99.90;;;;;;4938365;29;20223;-83
2023/03/11 12:55:36;;;;;;;7.37;6.87;;;6.90;99.90;;;;;;4933835;29;20214;-83
2023/03/11 12:58:51;;;;;;;7.53;7.00;;;6.90;99.90;;;;;;4936784;29;20776;-83
2023/03/11 13:01:42;;;;;;;8.03;7.50;;;6.70;99.90;;;;;;4937170;29;20724;-83
2023/03/11 13:04:48;;;;;;;8.17;7.67;;;6.70;99.90;;;;;;4937730;29;20714;-84
2023/03/11 13:07:44;;;;;;;8.53;7.93;;;6.70;99.90;;;;;;4937614;29;20210;-82
2023/03/11 13:10:15;;;;;;;8.30;7.70;;;6.70;99.90;;;;;;4938677;29;20205;-83
2023/03/11 13:12:44;;;;;;;8.20;7.50;;;6.60;99.90;;;;;;4937260;29;20226;-82
2023/03/11 13:15:41;;;;;;;7.77;7.37;;;6.60;99.90;;;;;;4935769;29;20208;-83
2023/03/11 13:18:19;;;;;;;8.17;7.57;;;6.70;99.90;;;;;;4934919;29;20203;-82
2023/03/11 13:20:55;;;;;;;8.27;7.57;;;6.70;99.90;;;;;;4937288;29;20222;-82
2023/03/11 13:23:34;;;;;;;8.07;7.50;;;6.70;99.90;;;;;;4933289;29;20241;-81
2023/03/11 13:26:30;;;;;;;8.10;7.50;;;6.70;99.90;;;;;;4937614;29;20207;-81
2023/03/11 13:29:35;;;;;;;7.80;7.30;;;6.60;99.90;;;;;;4932358;29;20650;-82
2023/03/11 13:32:33;;;;;;;8.40;7.67;;;6.60;99.90;;;;;;4942928;29;20244;-83
2023/03/11 13:35:13;;;;;;;9.03;8.23;;;6.70;99.90;;;;;;4934014;29;20210;-80
2023/03/11 13:37:51;;;;;;;7.97;7.47;;;6.70;99.90;;;;;;4932662;29;20198;-81
2023/03/11 13:40:37;;;;;;;8.00;7.40;;;6.70;99.90;;;;;;4932944;29;20308;-82
2023/03/11 13:43:09;;;;;;;7.67;7.17;;;6.80;99.90;;;;;;4940342;29;20202;-82
2023/03/11 13:45:38;;;;;;;8.20;7.60;;;6.90;99.90;;;;;;4945731;28;20224;-81
2023/03/11 13:48:13;;;;;;;7.30;6.90;;;6.90;99.90;;;;;;4938635;29;20210;-81
2023/03/11 13:50:46;;;;;;;7.70;7.20;;;6.80;99.90;;;;;;4944346;29;20205;-82
2023/03/11 13:53:20;;;;;;;8.83;8.13;;;6.90;99.90;;;;;;4936670;29;20274;-82
2023/03/11 13:55:49;;;;;;;8.47;7.87;;;6.90;99.90;;;;;;4930866;29;20632;-82
2023/03/11 13:58:19;;;;;;;7.60;7.10;;;6.90;99.90;;;;;;4937617;29;20202;-82
2023/03/11 14:00:51;;;;;;;7.97;7.47;;;6.90;99.90;;;;;;4936085;29;20230;-82
2023/03/11 14:03:21;;;;;;;8.07;7.23;;;6.70;99.90;;;;;;4938591;29;20199;-82
2023/03/11 14:05:55;;;;;;;7.23;6.80;;;6.70;99.90;;;;;;4934013;29;20245;-83
2023/03/11 14:08:27;;;;;;;7.37;6.87;;;6.80;99.90;;;;;;4937140;29;20328;-83
2023/03/11 14:10:55;;;;;;;7.50;7.00;;;6.80;99.90;;;;;;4938847;29;20727;-83
2023/03/11 14:13:24;;;;;;;7.87;7.10;;;6.90;99.90;;;;;;4936249;29;20213;-80
2023/03/11 14:16:00;;;;;;;7.40;6.90;;;6.90;99.90;;;;;;4943440;29;20217;-81
2023/03/11 14:18:32;;;;;;;7.37;6.80;;;6.90;99.90;;;;;;4936191;29;20247;-82
2023/03/11 14:21:02;;;;;;;8.07;7.37;;;7.00;99.90;;;;;;4934621;29;20472;-82
2023/03/11 14:23:32;;;;;;;7.40;6.80;;;7.00;99.90;;;;;;4932480;29;20694;-81
2023/03/11 14:26:03;;;;;;;8.27;7.50;;;7.00;99.90;;;;;;4936883;29;20235;-83
2023/03/11 14:28:34;;;;;;;7.70;7.20;;;7.00;99.90;;;;;;4936690;29;20732;-83
2023/03/11 14:31:02;;;;;;;7.50;6.90;;;6.90;99.90;;;;;;4938158;29;20238;-81
2023/03/11 14:33:29;;;;;;;7.43;6.83;;;7.00;99.90;;;;;;4936493;28;20206;-81
2023/03/11 14:35:58;;;;;;;7.30;6.80;;;7.00;99.90;;;;;;4934963;29;20221;-82
2023/03/11 14:38:29;;;;;;;7.40;6.90;;;7.00;99.90;;;;;;4935274;29;20217;-82
2023/03/11 14:40:58;;;;;;;7.10;6.70;;;7.10;99.90;;;;;;4934916;29;20238;-82
2023/03/11 14:43:25;;;;;;;7.57;7.07;;;7.10;99.90;;;;;;4931619;29;20257;-82
2023/03/11 14:45:54;;;;;;;6.90;6.50;;;7.20;99.90;;;;;;4939133;29;20222;-82
2023/03/11 14:48:25;;;;;;;7.37;6.97;;;7.20;99.90;;;;;;4936484;29;20214;-82
2023/03/11 14:50:57;;;;;;;7.50;7.00;;;7.30;99.90;;;;;;4951073;28;20462;-83
2023/03/11 14:53:29;;;;;;;7.20;6.80;;;7.40;99.90;;;;;;4936905;29;20203;-83
2023/03/11 14:55:57;;;;;;;6.60;6.10;;;7.60;99.90;;;;;;4941579;29;20214;-82
2023/03/11 14:58:30;;;;;;;6.30;5.90;;;7.80;99.90;;;;;;4934067;29;20294;-83
2023/03/11 15:01:03;;;;;;;6.27;5.90;;;7.70;99.90;;;;;;4933940;29;20227;-83
2023/03/11 15:03:33;;;;;;;7.37;6.77;;;7.80;99.90;;;;;;4936944;29;20660;-83
2023/03/11 15:06:03;;;;;;;6.97;6.33;;;8.00;99.90;;;;;;4934558;29;20219;-83
2023/03/11 15:08:35;;;;;;;6.67;6.27;;;8.00;99.90;;;;;;4935648;29;20246;-83
2023/03/11 15:11:18;;;;;;;7.07;6.57;;;7.90;99.90;;;;;;4932222;29;20223;-84
2023/03/11 15:13:49;;;;;;;6.63;6.17;;;7.90;99.90;;;;;;4929684;29;20278;-84
2023/03/11 15:16:25;;;;;;;6.23;5.73;;;8.00;99.90;;;;;;4934759;29;20203;-83
2023/03/11 15:18:53;;;;;;;6.40;6.00;;;7.90;99.90;;;;;;4935458;29;20245;-82
2023/03/11 15:21:22;;;;;;;6.30;5.93;;;7.80;99.90;;;;;;4933940;29;20235;-82
2023/03/11 15:23:52;;;;;;;7.00;6.50;;;7.90;99.90;;;;;;4937758;29;20204;-81
2023/03/11 15:26:22;;;;;;;6.60;6.10;;;7.90;99.90;;;;;;4937604;29;20203;-79
2023/03/11 15:28:54;;;;;;;6.53;6.03;;;7.80;99.90;;;;;;4935498;29;20219;-82
2023/03/11 15:31:32;;;;;;;6.30;5.80;;;7.90;99.90;;;;;;4938208;29;20297;-81
2023/03/11 15:34:09;;;;;;;6.30;5.80;;;7.90;99.90;;;;;;4935760;29;20606;-83
2023/03/11 15:36:38;;;;;;;6.40;5.90;;;7.90;99.90;;;;;;4928039;29;20203;-79
2023/03/11 15:39:17;;;;;;;6.37;5.87;;;7.90;99.90;;;;;;4935792;29;20287;-83
2023/03/11 15:41:46;;;;;;;6.50;6.00;;;7.90;99.90;;;;;;4929052;29;20218;-82
2023/03/11 15:44:26;;;;;;;6.30;5.90;;;7.90;99.90;;;;;;4939592;29;20207;-77
2023/03/11 15:46:53;;;;;;;6.40;6.00;;;7.70;99.90;;;;;;4935484;29;20254;-77
2023/03/11 15:49:20;;;;;;;6.53;6.10;;;7.60;99.90;;;;;;4938105;29;20640;-77
2023/03/11 15:51:47;;;;;;;6.60;6.00;;;7.60;99.90;;;;;;4942251;28;20226;-78
2023/03/11 15:54:15;;;;;;;6.97;6.57;;;7.60;99.90;;;;;;4937016;29;20203;-78
2023/03/11 15:56:42;;;;;;;6.97;6.47;;;7.50;99.90;;;;;;4935968;29;20198;-78
2023/03/11 15:59:14;;;;;;;6.90;6.40;;;7.50;99.90;;;;;;4934602;29;20608;-85
2023/03/11 16:01:41;;;;;;;6.50;6.00;;;7.50;99.90;;;;;;4936542;29;20274;-85
2023/03/11 16:04:13;;;;;;;6.77;6.30;;;7.50;99.90;;;;;;4929600;29;20215;-77
2023/03/11 16:06:40;;;;;;;6.57;6.17;;;7.40;99.90;;;;;;4935942;29;20207;-77
2023/03/11 16:09:07;;;;;;;6.67;6.20;;;7.30;99.90;;;;;;4941299;29;20211;-77
2023/03/11 16:11:37;;;;;;;6.80;6.40;;;7.20;99.90;;;;;;4946752;29;20211;-77
2023/03/11 16:14:04;;;;;;;7.03;6.53;;;7.20;99.90;;;;;;4946299;29;20230;-77
2023/03/11 16:16:32;;;;;;;6.47;6.07;;;7.10;99.90;;;;;;4949508;28;20202;-77
2023/03/11 16:18:58;;;;;;;7.20;6.60;;;7.10;99.90;;;;;;4943652;29;20647;-82